Bloomfield, NM

8:07 PM MDT on May 22, 2015 (GMT -0600)
Crouch Mesa | | Change Station
CLOSE
Current Station
Personal Weather Station
Location: Aztec, NM
Elevation: 5876 ft
Nearby Weather Stations

Elev 5876 ft 36.77 °N, 108.06 °W | Updated 3 seconds ago

Partly Cloudy
Partly Cloudy
62.2 °F
Feels Like 62.2 °F
N
15.2
Wind Variable Wind from SE
Gusts 15.2 mph

Today
High -- | Low -- °F
--% Chance of Precip.
Yesterday
High -- | Low -- °F
Precip. -- in
5:59 AM 8:17 PM
Waxing Crescent, 26% visible
Pressure 29.76 in
Visibility 10.0 miles
Clouds Few 9000 ft
Dew Point 40 °F
Humidity 44%
Rainfall 0.00 in
Snow Depth Not available.
UV 0 out of 12
Pollen 6.00 out of 12
Air Quality Not available.
Flu Activity Local Activity
METAR KFMN 230153Z 19008KT 10SM FEW090 18/03 A2987 RMK AO2 PK WND 14027/0113 RAB18E33 TSB25E40 SLP076 P0000 T01780028

More Conditions Fewer Conditions

Pressure 29.76 in
Visibility 10.0 miles
Clouds Few 9000 ft
Dew Point 40 °F
Humidity 44%
Rainfall 0.00 in
Snow Depth Not available.
UV 0 out of 12
Pollen 6.00 out of 12
Air Quality Not available.
Flu Activity Local Activity
METAR KFMN 230153Z 19008KT 10SM FEW090 18/03 A2987 RMK AO2 PK WND 14027/0113 RAB18E33 TSB25E40 SLP076 P0000 T01780028

More Conditions Fewer Conditions

Nowcast | as of 7:39 PM MDT on May 22, 2015

Isolated showers and thunderstorms will alternately develop and dissipate rather quickly across the north quarter of New Mexico through mid evening. Movement will be to the north and northeast at 35 to 40 mph and most will remain north of a line from Chaco Canyon to Las Vegas. Expect wind gusts ranging from 30 to as much as 45 mph...occasional cloud to ground lightning...very brief moderate to heavy rain and very small hail with the strongest storms. Rain amounts should be fifteen hundredths of an inch or less.

×

10-Day Weather Forecast

Almanac

Astronomy

May. 22, 2015 Rise Set
Actual Time
Civil Twilight
Nautical Twilight
Astronomical Twilight
Moon
Length of Visible Light
Length of Day
Tomorrow will be .
, % of the Moon is Illuminated

Today's Extremes

State Highs State Lows

Community

WunderPhotos

Upload Photos

1,823,363 photos uploaded!

WunderBlogs® & News

Nearby

Air Quality

  Air Quality AQ Index Pollutant
Not available.

Snow Depth

Station Depth Elevation

Earthquake Activity

City Distance Mag. Time & Date
Minimum magnitude displayed is 2.5.

Coastal Water Temperatures

Place Temperature

Stations

Nearby Weather Stations

Station Location Temp. Windchill Dew Point Humidity Wind Precip. Elev Updated Type